Time;durP1;ratioP1;P1;durP2;ratioP2;P2;SDS_P1;SDS_P2;PMS_P1;PMS_P2;Temp;Humidity;BMP_temperature;BMP_pressure;BME280_temperature;BME280_humidity;BME280_pressure;Samples;Min_cycle;Max_cycle;Signal;HPM_P1;HPM_P2
2021/05/11 00:01:51;;;;;;;;;;;14.10;99.90;;;;;;10383692;28;19929;-88
2021/05/11 00:06:52;;;;;;;;;;;14.40;99.90;;;;;;10398636;28;20284;-88
2021/05/11 00:11:54;;;;;;;;;;;14.40;99.90;;;;;;10398513;28;20360;-88
2021/05/11 00:16:55;;;;;;;;;;;14.40;99.90;;;;;;10400715;28;20013;-88
2021/05/11 00:21:57;;;;;;;;;;;14.40;99.90;;;;;;10399589;28;19925;-88
2021/05/11 00:26:58;;;;;;;;;;;14.40;99.90;;;;;;10386476;28;19929;-88
2021/05/11 00:31:59;;;;;;;;;;;14.50;99.90;;;;;;10359092;28;19926;-88
2021/05/11 00:37:01;;;;;;;;;;;14.70;99.90;;;;;;10360648;28;19925;-88
2021/05/11 00:42:02;;;;;;;;;;;14.70;99.90;;;;;;10366888;28;19925;-87
2021/05/11 00:47:07;;;;;;;;;;;14.80;99.90;;;;;;10398932;28;19931;-88
2021/05/11 00:52:08;;;;;;;;;;;14.70;99.90;;;;;;10399579;28;19947;-88
2021/05/11 00:57:10;;;;;;;;;;;14.70;99.90;;;;;;10383008;28;20394;-88
2021/05/11 01:02:11;;;;;;;;;;;14.70;99.90;;;;;;10416500;28;19925;-88
2021/05/11 01:07:13;;;;;;;;;;;14.50;99.90;;;;;;10398325;28;20352;-88
2021/05/11 01:12:14;;;;;;;;;;;14.60;99.90;;;;;;10382647;28;19931;-88
2021/05/11 01:17:21;;;;;;;;;;;14.60;99.90;;;;;;10398188;28;20020;-88
2021/05/11 01:27:49;;;;;;;;;;;14.50;99.90;;;;;;10415499;28;20007;-87
2021/05/11 01:48:59;;;;;;;;;;;13.90;99.90;;;;;;10416596;28;19925;-87
2021/05/11 02:26:05;;;;;;;;;;;13.30;99.90;;;;;;10422226;28;19925;-87
2021/05/11 02:31:06;;;;;;;;;;;13.30;99.90;;;;;;10422277;28;19972;-87
2021/05/11 02:36:08;;;;;;;;;;;13.20;99.90;;;;;;10388155;28;19925;-87
2021/05/11 02:41:09;;;;;;;;;;;13.10;99.90;;;;;;10421637;28;19925;-87
2021/05/11 02:46:11;;;;;;;;;;;13.20;99.90;;;;;;10420679;28;20372;-87
2021/05/11 02:51:12;;;;;;;;;;;13.10;99.90;;;;;;10403315;28;19956;-87
2021/05/11 02:56:17;;;;;;;;;;;13.10;99.90;;;;;;10402556;28;19929;-87
2021/05/11 03:01:19;;;;;;;;;;;13.00;99.90;;;;;;10387123;28;19929;-87
2021/05/11 03:06:20;;;;;;;;;;;13.10;99.90;;;;;;10403548;28;19980;-87
2021/05/11 03:11:21;;;;;;;;;;;12.80;99.90;;;;;;10402626;28;19933;-87
2021/05/11 03:16:24;;;;;;;;;;;12.70;99.90;;;;;;10418959;28;20008;-87
2021/05/11 03:21:25;;;;;;;;;;;12.80;99.90;;;;;;10419889;28;19928;-87
2021/05/11 03:26:27;;;;;;;;;;;12.70;99.90;;;;;;10402446;28;19955;-87
2021/05/11 03:31:28;;;;;;;;;;;12.70;99.90;;;;;;10402124;28;19925;-87
2021/05/11 03:36:30;;;;;;;;;;;12.70;99.90;;;;;;10402127;28;19932;-87
2021/05/11 03:41:38;;;;;;;;;;;12.70;99.90;;;;;;10401790;28;19955;-87
2021/05/11 03:46:40;;;;;;;;;;;12.70;99.90;;;;;;10402459;28;20004;-87
2021/05/11 03:51:42;;;;;;;;;;;12.60;99.90;;;;;;10418872;28;19948;-87
2021/05/11 03:56:44;;;;;;;;;;;12.60;99.90;;;;;;10418704;28;19979;-87
2021/05/11 04:01:46;;;;;;;;;;;12.80;99.90;;;;;;10400954;28;19933;-87
2021/05/11 04:06:51;;;;;;;;;;;12.60;99.90;;;;;;10360414;28;19973;-87
2021/05/11 04:17:27;;;;;;;;;;;12.60;99.90;;;;;;10354506;28;19933;-87
2021/05/11 04:22:29;;;;;;;;;;;12.60;99.90;;;;;;10414000;28;19925;-87
2021/05/11 04:27:31;;;;;;;;;;;12.50;99.90;;;;;;10379743;28;20372;-87
2021/05/11 04:32:35;;;;;;;;;;;12.60;99.90;;;;;;10359066;28;20336;-87
2021/05/11 04:37:37;;;;;;;;;;;12.70;99.90;;;;;;10359179;28;19937;-87
2021/05/11 04:42:42;;;;;;;;;;;12.90;99.90;;;;;;10358770;28;19931;-87
2021/05/11 04:47:47;;;;;;;;;;;12.90;99.90;;;;;;10358436;28;20361;-87
2021/05/11 04:52:50;;;;;;;;;;;12.90;99.90;;;;;;10342550;28;20008;-87
2021/05/11 04:57:52;;;;;;;;;;;12.90;99.90;;;;;;10358509;28;19972;-87
2021/05/11 05:02:54;;;;;;;;;;;12.90;99.90;;;;;;10358566;28;20372;-87
2021/05/11 05:07:59;;;;;;;;;;;13.00;99.90;;;;;;10344745;28;19925;-87
2021/05/11 05:13:01;;;;;;;;;;;13.10;99.90;;;;;;10358065;28;20041;-87
2021/05/11 05:18:03;;;;;;;;;;;13.20;99.90;;;;;;10357695;28;20387;-87
2021/05/11 05:23:05;;;;;;;;;;;13.20;99.90;;;;;;10363096;23;19932;-90
2021/05/11 05:28:09;;;;;;;;;;;14.30;99.90;;;;;;10357938;28;19925;-90
2021/05/11 05:33:11;;;;;;;;;;;13.40;99.90;;;;;;10378476;28;20406;-90
2021/05/11 05:38:13;;;;;;;;;;;13.40;99.90;;;;;;10365748;28;20000;-89
2021/05/11 05:43:15;;;;;;;;;;;13.40;99.90;;;;;;10325301;28;20005;-90
2021/05/11 05:48:16;;;;;;;;;;;13.50;99.90;;;;;;10324694;28;19925;-90
2021/05/11 05:53:32;;;;;;;;;;;13.60;99.90;;;;;;10340418;28;19932;-89
2021/05/11 05:58:34;;;;;;;;;;;13.70;99.90;;;;;;10360174;28;19926;-89
2021/05/11 06:03:39;;;;;;;;;;;13.80;99.90;;;;;;10363990;28;20369;-89
2021/05/11 06:08:41;;;;;;;;;;;13.80;99.90;;;;;;10381811;28;19948;-90
2021/05/11 06:13:57;;;;;;;;;;;13.90;99.90;;;;;;10363057;28;20296;-90
2021/05/11 06:18:59;;;;;;;;;;;13.90;99.90;;;;;;10349667;28;19936;-89
2021/05/11 06:24:01;;;;;;;;;;;13.90;99.90;;;;;;10388842;28;19952;-90
2021/05/11 06:29:06;;;;;;;;;;;14.10;99.90;;;;;;10387448;28;20368;-89
2021/05/11 06:34:09;;;;;;;;;;;14.20;99.90;;;;;;10372140;28;19930;-89
2021/05/11 06:39:13;;;;;;;;;;;14.40;99.90;;;;;;10363201;28;19967;-89
2021/05/11 06:54:46;;;;;;;;;;;14.90;99.90;;;;;;10356013;28;20368;-89
2021/05/11 06:59:48;;;;;;;;;;;15.30;99.90;;;;;;10337812;28;20024;-90
2021/05/11 07:04:53;;;;;;;;;;;16.30;99.90;;;;;;10324424;28;19992;-91
2021/05/11 07:10:17;;;;;;;;;;;16.80;99.90;;;;;;10306769;28;20258;-90
2021/05/11 07:15:20;;;;;;;;;;;16.80;99.90;;;;;;10311036;28;19933;-90
2021/05/11 07:20:22;;;;;;;;;;;17.00;99.90;;;;;;10370080;28;19926;-90
2021/05/11 07:25:27;;;;;;;;;;;17.30;99.90;;;;;;10378589;28;19929;-90
2021/05/11 07:30:30;;;;;;;;;;;17.60;99.90;;;;;;10378455;28;19940;-90
2021/05/11 07:35:32;;;;;;;;;;;17.90;99.90;;;;;;10344520;28;20403;-90
2021/05/11 07:40:34;;;;;;;;;;;17.80;99.90;;;;;;10343026;28;19929;-91
2021/05/11 08:01:51;;;;;;;;;;;18.20;99.90;;;;;;10357373;28;19932;-90
2021/05/11 08:17:40;;;;;;;;;;;17.20;99.90;;;;;;10348992;28;20291;-90
2021/05/11 08:22:51;;;;;;;;;;;16.80;99.90;;;;;;10359763;28;19926;-88
2021/05/11 08:28:01;;;;;;;;;;;16.60;99.90;;;;;;10344867;28;19931;-88
2021/05/11 08:33:02;;;;;;;;;;;16.50;99.90;;;;;;10376495;28;19979;-88
2021/05/11 08:38:05;;;;;;;;;;;16.30;99.90;;;;;;10378973;28;19965;-90
2021/05/11 08:43:25;;;;;;;;;;;16.40;99.90;;;;;;10358569;28;20384;-90
2021/05/11 08:48:27;;;;;;;;;;;16.50;99.90;;;;;;10376425;28;19932;-90
2021/05/11 09:14:09;;;;;;;;;;;16.00;99.90;;;;;;10373240;28;20360;-90
2021/05/11 09:15:40;;;;;;;;;;;16.00;99.90;;;;;;10338235;28;20284;-90
2021/05/11 09:26:13;;;;;;;;;;;16.10;99.90;;;;;;10340387;28;19988;-90
2021/05/11 10:27:03;;;;;;;;;;;17.20;99.90;;;;;;10319364;28;19929;-89
2021/05/11 10:36:51;;;;;;;;;;;18.90;99.90;;;;;;10396698;28;20335;-87
2021/05/11 10:42:13;;;;;;;;;;;18.80;99.90;;;;;;10420857;28;19932;-88
2021/05/11 10:47:15;;;;;;;;;;;19.30;99.90;;;;;;10403495;28;19931;-88
2021/05/11 10:52:20;;;;;;;;;;;19.40;99.90;;;;;;10402728;28;20367;-88
2021/05/11 10:57:35;;;;;;;;;;;19.10;99.90;;;;;;10380615;28;19937;-90
2021/05/11 11:02:40;;;;;;;;;;;18.70;99.90;;;;;;10362526;28;19976;-91
2021/05/11 11:07:43;;;;;;;;;;;18.60;99.90;;;;;;10346815;28;19925;-89
2021/05/11 11:12:45;;;;;;;;;;;18.70;99.90;;;;;;10361900;28;19925;-89
2021/05/11 11:17:50;;;;;;;;;;;18.90;99.90;;;;;;10360992;28;20443;-89
2021/05/11 11:28:29;;;;;;;;;;;18.50;99.90;;;;;;10460253;28;19924;-88
2021/05/11 11:33:32;;;;;;;;;;;18.50;99.90;;;;;;10426001;28;20256;-88
2021/05/11 11:38:35;;;;;;;;;;;18.20;99.90;;;;;;10426822;28;19931;-88
2021/05/11 11:43:37;;;;;;;;;;;18.10;99.90;;;;;;10459962;28;20376;-88
2021/05/11 11:48:39;;;;;;;;;;;18.00;99.90;;;;;;10460419;28;19931;-88
2021/05/11 11:53:45;;;;;;;;;;;18.00;99.90;;;;;;10442552;28;19929;-88
2021/05/11 11:58:49;;;;;;;;;;;18.10;99.90;;;;;;10442938;28;19925;-87
2021/05/11 12:03:54;;;;;;;;;;;18.20;99.90;;;;;;10421855;28;19929;-88
2021/05/11 12:08:56;;;;;;;;;;;18.00;99.90;;;;;;10457913;28;20322;-89
2021/05/11 12:13:57;;;;;;;;;;;17.80;99.90;;;;;;10441013;28;19939;-88
2021/05/11 12:19:04;;;;;;;;;;;17.80;99.90;;;;;;10441512;28;20012;-87
2021/05/11 12:24:10;;;;;;;;;;;17.60;99.90;;;;;;10440849;28;19943;-88
2021/05/11 12:29:13;;;;;;;;;;;17.50;99.90;;;;;;10439683;28;20020;-88
2021/05/11 12:34:22;;;;;;;;;;;17.30;99.90;;;;;;10457748;28;19931;-86
2021/05/11 12:39:42;;;;;;;;;;;17.20;99.90;;;;;;10456633;28;20379;-88
2021/05/11 12:44:44;;;;;;;;;;;17.20;99.90;;;;;;10405832;28;20373;-87
2021/05/11 12:49:46;;;;;;;;;;;16.90;99.90;;;;;;10416386;28;19926;-86
2021/05/11 12:54:50;;;;;;;;;;;16.80;99.90;;;;;;10398611;28;20352;-87
2021/05/11 13:09:22;;;;;;;;;;;16.50;99.90;;;;;;10448359;28;19963;-87
2021/05/11 13:16:13;;;;;;;;;;;16.60;99.90;;;;;;10457534;28;19935;-87
2021/05/11 13:21:23;;;;;;;;;;;16.50;99.90;;;;;;10439726;28;19931;-87
2021/05/11 13:26:33;;;;;;;;;;;16.70;99.90;;;;;;10423674;28;20294;-87
2021/05/11 13:31:42;;;;;;;;;;;16.50;99.90;;;;;;10451775;28;19947;-87
2021/05/11 13:36:45;;;;;;;;;;;16.60;99.90;;;;;;10415735;28;19925;-87
2021/05/11 13:41:47;;;;;;;;;;;16.40;99.90;;;;;;10415982;28;19925;-88
2021/05/11 13:46:50;;;;;;;;;;;16.40;99.90;;;;;;10398393;28;20016;-87
2021/05/11 13:51:53;;;;;;;;;;;16.30;99.90;;;;;;10382732;28;19932;-87
2021/05/11 14:07:04;;;;;;;;;;;15.90;99.90;;;;;;10430350;28;19932;-88
2021/05/11 14:12:06;;;;;;;;;;;15.90;99.90;;;;;;10423037;28;19968;-88
2021/05/11 14:17:08;;;;;;;;;;;15.80;99.90;;;;;;10422335;28;19952;-87
2021/05/11 14:22:11;;;;;;;;;;;15.90;99.90;;;;;;10404922;28;19983;-87
2021/05/11 14:27:13;;;;;;;;;;;15.70;99.90;;;;;;10405042;28;19932;-87
2021/05/11 14:32:14;;;;;;;;;;;15.90;99.90;;;;;;10417004;28;19932;-88
2021/05/11 14:37:17;;;;;;;;;;;15.80;99.90;;;;;;10445662;28;20372;-87
2021/05/11 14:42:18;;;;;;;;;;;15.70;99.90;;;;;;10463113;28;19924;-87
2021/05/11 14:47:20;;;;;;;;;;;15.40;99.90;;;;;;10428250;28;19935;-88
2021/05/11 14:52:23;;;;;;;;;;;15.20;99.90;;;;;;10428862;28;20253;-88
2021/05/11 14:57:25;;;;;;;;;;;15.20;99.90;;;;;;10403242;28;20023;-87
2021/05/11 15:02:27;;;;;;;;;;;15.00;99.90;;;;;;10402364;28;19925;-87
2021/05/11 15:07:28;;;;;;;;;;;14.90;99.90;;;;;;10419654;28;20376;-87
2021/05/11 15:12:30;;;;;;;;;;;15.10;99.90;;;;;;10420340;28;20031;-87
2021/05/11 15:22:36;;;;;;;;;;;14.90;99.90;;;;;;10459816;28;20697;-87
2021/05/11 15:27:38;;;;;;;;;;;14.90;99.90;;;;;;10443929;28;19971;-87
2021/05/11 15:32:59;;;;;;;;;;;15.00;99.90;;;;;;10460470;28;20395;-87
2021/05/11 15:38:06;;;;;;;;;;;14.80;99.90;;;;;;10429214;28;19932;-87
2021/05/11 15:43:08;;;;;;;;;;;14.90;99.90;;;;;;10442832;28;19925;-87
2021/05/11 15:48:11;;;;;;;;;;;14.90;99.90;;;;;;10442860;28;19932;-87
2021/05/11 15:53:15;;;;;;;;;;;14.90;99.90;;;;;;10402041;28;19931;-87
2021/05/11 15:58:17;;;;;;;;;;;14.60;99.90;;;;;;10441435;28;19924;-87
2021/05/11 16:03:19;;;;;;;;;;;14.90;99.90;;;;;;10400259;28;19925;-87
2021/05/11 16:08:23;;;;;;;;;;;14.70;99.90;;;;;;10418360;28;19932;-87
2021/05/11 16:13:25;;;;;;;;;;;14.80;99.90;;;;;;10416424;28;19925;-87
2021/05/11 16:18:29;;;;;;;;;;;14.90;99.90;;;;;;10416435;28;20012;-87
2021/05/11 16:23:32;;;;;;;;;;;14.80;99.90;;;;;;10398967;28;21370;-87
2021/05/11 16:28:34;;;;;;;;;;;14.80;99.90;;;;;;10416933;28;19975;-87
2021/05/11 16:33:37;;;;;;;;;;;14.80;99.90;;;;;;10430461;28;19932;-87
2021/05/11 16:38:38;;;;;;;;;;;14.70;99.90;;;;;;10440091;28;20024;-87
2021/05/11 16:43:40;;;;;;;;;;;14.80;99.90;;;;;;10413177;28;20008;-87
2021/05/11 16:48:42;;;;;;;;;;;14.80;99.90;;;;;;10399620;28;19925;-87
2021/05/11 16:53:44;;;;;;;;;;;14.90;99.90;;;;;;10448299;28;19925;-87
2021/05/11 16:58:45;;;;;;;;;;;14.80;99.90;;;;;;10457293;28;20286;-87
2021/05/11 17:03:47;;;;;;;;;;;14.70;99.90;;;;;;10439487;28;20387;-87
2021/05/11 17:08:49;;;;;;;;;;;14.60;99.90;;;;;;10423563;28;19932;-87
2021/05/11 17:13:51;;;;;;;;;;;14.90;99.90;;;;;;10439185;28;19928;-87
2021/05/11 17:18:53;;;;;;;;;;;14.90;99.90;;;;;;10438509;28;19931;-90
2021/05/11 17:23:55;;;;;;;;;;;14.80;99.90;;;;;;10398422;23;19925;-89
2021/05/11 17:29:05;;;;;;;;;;;14.80;99.90;;;;;;10404217;28;20279;-89
2021/05/11 17:34:07;;;;;;;;;;;14.70;99.90;;;;;;10407172;28;19925;-89
2021/05/11 17:39:09;;;;;;;;;;;14.60;99.90;;;;;;10390589;28;20364;-89
2021/05/11 17:44:11;;;;;;;;;;;14.80;99.90;;;;;;10406668;28;19925;-89
2021/05/11 17:49:12;;;;;;;;;;;14.80;99.90;;;;;;10408578;28;20356;-89
2021/05/11 17:54:14;;;;;;;;;;;14.80;99.90;;;;;;10373405;28;20380;-86
2021/05/11 17:59:16;;;;;;;;;;;14.70;99.90;;;;;;10405935;28;19932;-86
2021/05/11 18:04:18;;;;;;;;;;;14.60;99.90;;;;;;10405763;28;19931;-86
2021/05/11 18:09:19;;;;;;;;;;;14.70;99.90;;;;;;10423719;28;19925;-90
2021/05/11 18:14:21;;;;;;;;;;;14.70;99.90;;;;;;10388994;28;19996;-86
2021/05/11 18:19:23;;;;;;;;;;;14.40;99.90;;;;;;10419960;28;20015;-85
2021/05/11 18:24:25;;;;;;;;;;;14.70;99.90;;;;;;10363305;28;20277;-86
2021/05/11 18:29:26;;;;;;;;;;;14.60;99.90;;;;;;10394665;28;19925;-86
2021/05/11 18:34:28;;;;;;;;;;;14.60;99.90;;;;;;10387583;28;20284;-86
2021/05/11 18:39:30;;;;;;;;;;;14.60;99.90;;;;;;10417101;28;19979;-86
2021/05/11 18:44:32;;;;;;;;;;;14.50;99.90;;;;;;10363569;28;19931;-86
2021/05/11 18:49:34;;;;;;;;;;;14.50;99.90;;;;;;10362462;28;20304;-86
2021/05/11 18:54:35;;;;;;;;;;;14.40;99.90;;;;;;10347036;28;19925;-86
2021/05/11 18:59:37;;;;;;;;;;;14.40;99.90;;;;;;10389910;28;19926;-86
2021/05/11 19:04:42;;;;;;;;;;;14.30;99.90;;;;;;10346114;28;19925;-86
2021/05/11 19:09:44;;;;;;;;;;;14.30;99.90;;;;;;10379851;28;19941;-86
2021/05/11 19:14:46;;;;;;;;;;;14.20;99.90;;;;;;10362639;28;19932;-86
2021/05/11 19:19:48;;;;;;;;;;;14.00;99.90;;;;;;10345754;28;19932;-86
2021/05/11 19:24:50;;;;;;;;;;;14.00;99.90;;;;;;10361613;28;19925;-86
2021/05/11 19:29:53;;;;;;;;;;;13.90;99.90;;;;;;10361168;28;19926;-86
2021/05/11 19:34:55;;;;;;;;;;;13.90;99.90;;;;;;10394690;28;19925;-86
2021/05/11 19:39:57;;;;;;;;;;;13.80;99.90;;;;;;10402173;28;19925;-86
2021/05/11 19:44:59;;;;;;;;;;;13.70;99.90;;;;;;10402079;28;19925;-86
2021/05/11 19:50:03;;;;;;;;;;;13.60;99.90;;;;;;10401668;28;19931;-86
2021/05/11 19:55:05;;;;;;;;;;;13.60;99.90;;;;;;10385504;28;19929;-86
2021/05/11 20:00:07;;;;;;;;;;;13.60;99.90;;;;;;10407478;28;19933;-86
2021/05/11 20:05:09;;;;;;;;;;;13.30;99.90;;;;;;10360300;28;19933;-86
2021/05/11 20:10:11;;;;;;;;;;;13.20;99.90;;;;;;10359485;28;19933;-86
2021/05/11 20:15:13;;;;;;;;;;;13.30;99.90;;;;;;10344028;28;19935;-86
2021/05/11 20:20:18;;;;;;;;;;;13.20;99.90;;;;;;10359131;28;19925;-86
2021/05/11 20:25:21;;;;;;;;;;;13.20;99.90;;;;;;10345291;28;20391;-86
2021/05/11 20:30:23;;;;;;;;;;;13.10;99.90;;;;;;10399665;28;20288;-86
2021/05/11 20:35:27;;;;;;;;;;;13.00;99.90;;;;;;10399251;28;20024;-86
2021/05/11 20:40:30;;;;;;;;;;;13.10;99.90;;;;;;10398533;28;20372;-86
2021/05/11 20:45:32;;;;;;;;;;;13.00;99.90;;;;;;10399662;28;19931;-85
2021/05/11 20:50:35;;;;;;;;;;;12.90;99.90;;;;;;10354034;28;20031;-86
2021/05/11 20:55:37;;;;;;;;;;;13.00;99.90;;;;;;10375693;28;20008;-85
2021/05/11 21:00:39;;;;;;;;;;;13.30;99.90;;;;;;10358038;28;19948;-86
2021/05/11 21:05:41;;;;;;;;;;;12.90;99.90;;;;;;10358204;28;20012;-86
2021/05/11 21:10:44;;;;;;;;;;;12.90;99.90;;;;;;10358245;28;20388;-86
2021/05/11 21:15:47;;;;;;;;;;;12.90;99.90;;;;;;10342058;28;19925;-85
2021/05/11 21:20:49;;;;;;;;;;;12.90;99.90;;;;;;10357846;28;19925;-85
2021/05/11 21:25:51;;;;;;;;;;;12.90;99.90;;;;;;10350354;28;19926;-85
2021/05/11 21:30:53;;;;;;;;;;;12.90;99.90;;;;;;10415565;28;19936;-85
2021/05/11 21:35:55;;;;;;;;;;;12.80;99.90;;;;;;10415238;28;19956;-85
2021/05/11 21:40:57;;;;;;;;;;;12.70;99.90;;;;;;10415405;28;19951;-85
2021/05/11 21:45:59;;;;;;;;;;;12.70;99.90;;;;;;10415446;28;20291;-85
2021/05/11 21:51:01;;;;;;;;;;;12.70;99.90;;;;;;10398398;28;19968;-85
2021/05/11 21:56:03;;;;;;;;;;;12.60;99.90;;;;;;10388286;28;19936;-85
2021/05/11 22:01:05;;;;;;;;;;;12.70;99.90;;;;;;10373429;28;19929;-85
2021/05/11 22:06:07;;;;;;;;;;;12.60;99.90;;;;;;10339900;28;19926;-85
2021/05/11 22:11:09;;;;;;;;;;;12.60;99.90;;;;;;10355232;28;20295;-85
2021/05/11 22:16:11;;;;;;;;;;;12.50;99.90;;;;;;10360182;28;19933;-85
2021/05/11 22:21:12;;;;;;;;;;;12.60;99.90;;;;;;10379775;28;19952;-85
2021/05/11 22:26:15;;;;;;;;;;;12.50;99.90;;;;;;10392742;28;20321;-86
2021/05/11 22:31:17;;;;;;;;;;;12.40;99.90;;;;;;10420833;28;19940;-85
2021/05/11 22:36:19;;;;;;;;;;;12.40;99.90;;;;;;10420338;28;19929;-85
2021/05/11 22:41:21;;;;;;;;;;;12.50;99.90;;;;;;10420626;28;19932;-85
2021/05/11 22:46:22;;;;;;;;;;;12.40;99.90;;;;;;10403137;28;19925;-85
2021/05/11 22:51:24;;;;;;;;;;;12.40;99.90;;;;;;10418554;28;20394;-85
2021/05/11 22:56:26;;;;;;;;;;;12.40;99.90;;;;;;10401031;28;19940;-85
2021/05/11 23:01:28;;;;;;;;;;;12.30;99.90;;;;;;10398395;28;19932;-84
2021/05/11 23:06:32;;;;;;;;;;;12.30;99.90;;;;;;10361604;28;19933;-85
2021/05/11 23:11:34;;;;;;;;;;;12.30;99.90;;;;;;10361232;28;20377;-85
2021/05/11 23:16:36;;;;;;;;;;;12.30;99.90;;;;;;10414191;28;19925;-86
2021/05/11 23:21:38;;;;;;;;;;;12.30;99.90;;;;;;10416472;28;19932;-85
2021/05/11 23:26:40;;;;;;;;;;;12.30;99.90;;;;;;10361365;28;19933;-85
2021/05/11 23:31:42;;;;;;;;;;;12.20;99.90;;;;;;10360743;28;20369;-86
2021/05/11 23:36:43;;;;;;;;;;;12.20;99.90;;;;;;10352050;23;19926;-88
2021/05/11 23:41:45;;;;;;;;;;;12.10;99.90;;;;;;10338430;28;19926;-88
2021/05/11 23:46:47;;;;;;;;;;;12.00;99.90;;;;;;10320704;28;19933;-88
2021/05/11 23:51:49;;;;;;;;;;;11.90;99.90;;;;;;10320759;28;19926;-88
2021/05/11 23:56:51;;;;;;;;;;;11.80;99.90;;;;;;10337579;28;19929;-88
